Time;durP1;ratioP1;P1;durP2;ratioP2;P2;SDS_P1;SDS_P2;PMS_P1;PMS_P2;Temp;Humidity;BMP_temperature;BMP_pressure;BME280_temperature;BME280_humidity;BME280_pressure;Samples;Min_cycle;Max_cycle;Signal;HPM_P1;HPM_P2
2023/07/03 00:01:14;;;;;;;5.10;1.40;;;18.50;61.40;;;;;;4949805;28;20070;-18
2023/07/03 00:03:39;;;;;;;8.95;1.83;;;18.50;61.50;;;;;;4967832;28;20030;-18
2023/07/03 00:06:05;;;;;;;5.28;1.40;;;18.50;61.60;;;;;;4942696;28;20494;-18
2023/07/03 00:08:31;;;;;;;5.27;1.47;;;18.40;61.70;;;;;;4984225;28;20528;-19
2023/07/03 00:11:01;;;;;;;5.22;1.35;;;18.40;61.90;;;;;;4967465;28;20264;-18
2023/07/03 00:13:27;;;;;;;4.97;1.20;;;18.40;62.50;;;;;;4963619;28;20042;-18
2023/07/03 00:16:00;;;;;;;5.25;1.40;;;18.40;62.20;;;;;;4941957;28;20308;-17
2023/07/03 00:18:28;;;;;;;4.50;1.37;;;18.40;62.80;;;;;;4980531;28;20075;-18
2023/07/03 00:20:54;;;;;;;4.70;1.20;;;18.30;62.50;;;;;;4983110;28;20215;-18
2023/07/03 00:23:24;;;;;;;6.15;1.60;;;18.30;62.60;;;;;;4963482;28;20041;-17
2023/07/03 00:25:51;;;;;;;4.35;1.60;;;18.30;63.10;;;;;;4969474;28;20326;-18
2023/07/03 00:28:17;;;;;;;7.40;1.85;;;18.30;62.70;;;;;;4971468;28;20030;-19
2023/07/03 00:30:43;;;;;;;7.37;1.60;;;18.30;62.80;;;;;;4947733;28;20088;-18
2023/07/03 00:33:10;;;;;;;5.53;1.40;;;18.30;62.90;;;;;;4970738;28;20030;-18
2023/07/03 00:35:36;;;;;;;6.30;1.50;;;18.30;63.20;;;;;;4945042;28;20041;-18
2023/07/03 00:38:02;;;;;;;5.65;1.55;;;18.30;63.30;;;;;;4959405;28;20600;-18
2023/07/03 00:40:28;;;;;;;5.57;1.47;;;18.30;63.20;;;;;;4968074;28;20365;-18
2023/07/03 00:42:55;;;;;;;6.68;1.50;;;18.20;63.40;;;;;;4967732;28;20144;-17
2023/07/03 00:45:21;;;;;;;7.05;1.60;;;18.20;63.60;;;;;;4986992;28;20038;-17
2023/07/03 00:47:48;;;;;;;7.97;1.57;;;18.20;63.90;;;;;;4944314;28;20239;-18
2023/07/03 00:50:15;;;;;;;6.63;1.83;;;18.20;64.00;;;;;;4954828;28;20390;-18
2023/07/03 00:52:41;;;;;;;5.00;1.58;;;18.10;64.10;;;;;;4959328;28;20058;-18
2023/07/03 00:55:10;;;;;;;5.50;1.40;;;18.10;64.30;;;;;;4981885;28;20482;-18
2023/07/03 00:57:36;;;;;;;6.53;1.63;;;18.10;64.40;;;;;;4965782;28;20085;-18
2023/07/03 01:00:03;;;;;;;4.57;1.20;;;18.10;64.70;;;;;;4966135;28;20042;-18
2023/07/03 01:02:44;;;;;;;6.82;1.42;;;18.10;64.60;;;;;;4944418;28;20530;-18
2023/07/03 01:05:20;;;;;;;5.85;1.40;;;18.10;65.50;;;;;;4966650;28;20425;-18
2023/07/03 01:07:46;;;;;;;6.57;1.55;;;18.00;65.50;;;;;;4957461;28;20434;-18
2023/07/03 01:10:25;;;;;;;5.33;1.50;;;18.00;64.90;;;;;;4962892;28;20561;-18
2023/07/03 01:12:57;;;;;;;5.68;1.58;;;18.00;66.30;;;;;;4964407;28;20248;-18
2023/07/03 01:15:31;;;;;;;6.10;1.60;;;18.00;65.90;;;;;;4964969;28;20019;-18
2023/07/03 01:17:59;;;;;;;7.15;1.83;;;17.90;65.70;;;;;;4959314;28;20102;-17
2023/07/03 01:20:32;;;;;;;6.00;1.65;;;17.90;65.80;;;;;;4968744;28;20027;-18
2023/07/03 01:23:03;;;;;;;4.97;1.50;;;17.90;66.20;;;;;;4942129;28;20352;-18
2023/07/03 01:25:30;;;;;;;7.25;1.60;;;17.90;65.90;;;;;;4956021;28;20494;-18
2023/07/03 01:27:58;;;;;;;9.73;1.88;;;17.90;66.20;;;;;;4963665;28;20558;-18
2023/07/03 01:30:26;;;;;;;7.28;1.80;;;17.90;66.40;;;;;;4971934;28;20041;-17
2023/07/03 01:32:53;;;;;;;6.55;1.48;;;17.90;66.50;;;;;;4965456;28;20027;-18
2023/07/03 01:35:21;;;;;;;7.77;1.77;;;17.90;66.70;;;;;;4948239;28;20026;-17
2023/07/03 01:37:50;;;;;;;7.00;1.40;;;17.90;66.80;;;;;;4980926;28;20689;-17
2023/07/03 01:40:18;;;;;;;4.82;1.50;;;17.90;66.90;;;;;;4981884;28;20034;-17
2023/07/03 01:42:46;;;;;;;5.63;1.50;;;17.80;67.00;;;;;;4954929;28;20168;-18
2023/07/03 01:45:11;;;;;;;6.95;1.60;;;17.80;67.80;;;;;;4968099;28;20473;-18
2023/07/03 01:47:37;;;;;;;9.20;1.60;;;17.80;67.00;;;;;;4968613;28;20026;-18
2023/07/03 01:50:11;;;;;;;7.00;1.60;;;17.80;67.20;;;;;;4941495;28;20113;-18
2023/07/03 01:52:45;;;;;;;5.03;1.60;;;17.80;68.10;;;;;;4967115;28;20035;-18
2023/07/03 01:55:35;;;;;;;7.00;1.73;;;17.80;68.20;;;;;;4967607;28;20264;-18
2023/07/03 01:58:32;;;;;;;8.00;1.60;;;17.80;68.80;;;;;;4949803;28;20100;-18
2023/07/03 02:01:11;;;;;;;6.88;1.75;;;17.80;69.00;;;;;;4960289;28;20055;-18
2023/07/03 02:03:44;;;;;;;6.47;1.52;;;17.80;68.50;;;;;;4967924;28;20158;-18
2023/07/03 02:06:23;;;;;;;5.82;1.70;;;17.70;68.30;;;;;;4940837;28;20039;-18
2023/07/03 02:08:50;;;;;;;7.05;1.80;;;17.80;69.10;;;;;;4948534;28;20421;-17
2023/07/03 02:11:19;;;;;;;6.80;1.73;;;17.70;68.00;;;;;;4973318;28;20030;-17
2023/07/03 02:13:44;;;;;;;6.22;2.00;;;17.70;68.00;;;;;;4970319;28;20478;-17
2023/07/03 02:16:10;;;;;;;9.52;2.13;;;17.70;68.40;;;;;;4970552;28;20031;-18
2023/07/03 02:18:36;;;;;;;7.20;1.50;;;17.70;68.40;;;;;;4969682;28;20022;-18
2023/07/03 02:21:05;;;;;;;6.90;1.48;;;17.70;68.50;;;;;;4956394;28;20041;-18
2023/07/03 02:23:31;;;;;;;6.40;1.67;;;17.60;68.70;;;;;;4976547;28;20437;-18
2023/07/03 02:25:57;;;;;;;7.53;1.70;;;17.70;68.90;;;;;;4976837;28;20034;-18
2023/07/03 02:28:23;;;;;;;6.13;1.60;;;17.60;69.00;;;;;;4961474;28;20424;-18
2023/07/03 02:30:49;;;;;;;5.35;1.60;;;17.70;69.00;;;;;;4968652;28;20046;-18
2023/07/03 02:33:14;;;;;;;7.87;1.80;;;17.70;69.10;;;;;;4965889;28;20034;-18
2023/07/03 02:35:43;;;;;;;6.00;1.70;;;17.70;69.40;;;;;;4971940;28;20023;-18
2023/07/03 02:38:09;;;;;;;7.30;1.60;;;17.70;69.50;;;;;;4962767;28;20253;-18
2023/07/03 02:40:36;;;;;;;5.20;1.60;;;17.70;69.80;;;;;;4978929;28;20038;-18
2023/07/03 02:43:03;;;;;;;6.65;1.67;;;17.70;69.70;;;;;;4980705;28;20041;-18
2023/07/03 02:45:37;;;;;;;8.40;1.80;;;17.70;69.80;;;;;;4964209;28;20031;-18
2023/07/03 02:48:04;;;;;;;5.53;1.60;;;17.70;70.50;;;;;;4984415;28;20026;-18
2023/07/03 02:50:29;;;;;;;6.40;1.83;;;17.70;70.00;;;;;;4969874;28;20236;-17
2023/07/03 02:52:55;;;;;;;9.63;2.00;;;17.60;70.10;;;;;;4948332;28;20191;-18
2023/07/03 02:55:21;;;;;;;5.32;1.80;;;17.70;70.10;;;;;;4965641;28;20560;-18
2023/07/03 02:57:47;;;;;;;7.50;1.57;;;17.70;70.30;;;;;;4970541;28;20026;-18
2023/07/03 03:00:13;;;;;;;7.18;1.85;;;17.70;70.40;;;;;;4959334;28;20476;-18
2023/07/03 03:02:39;;;;;;;6.87;1.90;;;17.70;70.60;;;;;;4971993;28;20365;-18
2023/07/03 03:05:05;;;;;;;8.30;1.80;;;17.70;70.40;;;;;;4967406;28;20031;-18
2023/07/03 03:07:31;;;;;;;6.85;1.73;;;17.70;70.70;;;;;;4987321;28;20803;-17
2023/07/03 03:09:56;;;;;;;8.30;2.20;;;17.70;70.70;;;;;;4951672;28;20031;-18
2023/07/03 03:12:22;;;;;;;7.25;1.67;;;17.70;70.80;;;;;;4969936;28;20137;-18
2023/07/03 03:14:48;;;;;;;7.47;1.83;;;17.70;70.90;;;;;;4976935;28;20109;-18
2023/07/03 03:17:14;;;;;;;8.17;1.87;;;17.70;70.90;;;;;;4970095;28;20767;-18
2023/07/03 03:19:40;;;;;;;6.97;1.70;;;17.80;71.00;;;;;;4988224;28;20058;-17
2023/07/03 03:22:06;;;;;;;7.90;2.03;;;17.70;71.10;;;;;;4969238;28;20073;-18
2023/07/03 03:24:32;;;;;;;6.25;1.83;;;17.80;71.10;;;;;;4946244;28;20695;-18
2023/07/03 03:26:58;;;;;;;4.85;1.55;;;17.80;71.20;;;;;;4971591;28;20125;-18
2023/07/03 03:29:24;;;;;;;7.22;2.05;;;17.80;71.40;;;;;;4969616;28;20105;-18
2023/07/03 03:31:50;;;;;;;5.80;1.80;;;17.80;71.60;;;;;;4961483;28;20043;-18
2023/07/03 03:34:15;;;;;;;6.30;1.98;;;17.80;71.50;;;;;;4975697;28;20276;-18
2023/07/03 03:36:42;;;;;;;7.33;1.90;;;17.80;71.80;;;;;;4972214;28;20594;-18
2023/07/03 03:39:08;;;;;;;5.03;1.70;;;17.80;71.90;;;;;;4950101;28;20152;-18
2023/07/03 03:41:34;;;;;;;7.38;2.10;;;17.80;71.70;;;;;;4966307;28;20035;-18
2023/07/03 03:43:59;;;;;;;6.60;2.10;;;17.80;71.80;;;;;;4970436;28;20058;-18
2023/07/03 03:46:25;;;;;;;8.23;2.47;;;17.80;71.90;;;;;;4959276;28;20233;-18
2023/07/03 03:48:51;;;;;;;5.73;1.80;;;17.80;72.10;;;;;;4974237;28;20030;-18
2023/07/03 03:51:16;;;;;;;7.80;2.00;;;17.80;72.10;;;;;;4973648;28;20327;-18
2023/07/03 03:53:42;;;;;;;9.07;2.10;;;17.90;72.20;;;;;;4986391;28;20113;-18
2023/07/03 03:56:08;;;;;;;7.33;1.60;;;17.90;72.40;;;;;;4944476;28;20033;-18
2023/07/03 03:58:33;;;;;;;6.40;1.98;;;17.90;72.50;;;;;;4987036;28;20089;-18
2023/07/03 04:01:00;;;;;;;5.23;1.70;;;17.90;72.60;;;;;;4968982;28;20047;-18
2023/07/03 04:03:26;;;;;;;7.30;1.85;;;17.90;72.60;;;;;;4960889;28;20188;-17
2023/07/03 04:05:52;;;;;;;7.53;2.20;;;17.90;72.60;;;;;;4965445;28;20026;-17
2023/07/03 04:08:18;;;;;;;8.47;1.87;;;17.90;72.60;;;;;;4974738;28;20589;-18
2023/07/03 04:10:43;;;;;;;7.50;2.20;;;17.90;72.80;;;;;;4947827;28;20030;-18
2023/07/03 04:13:13;;;;;;;6.03;1.83;;;17.90;72.70;;;;;;4940863;28;20460;-17
2023/07/03 04:15:57;;;;;;;7.40;2.10;;;17.90;73.10;;;;;;4964476;28;20027;-18
2023/07/03 04:18:24;;;;;;;7.60;2.08;;;17.90;73.80;;;;;;4959657;28;20031;-18
2023/07/03 04:20:50;;;;;;;7.93;2.10;;;17.80;72.70;;;;;;4964545;28;20037;-18
2023/07/03 04:23:16;;;;;;;8.02;2.28;;;17.90;73.10;;;;;;4982783;28;20030;-17
2023/07/03 04:25:42;;;;;;;6.97;2.13;;;17.80;72.90;;;;;;4960601;28;20051;-18
2023/07/03 04:28:09;;;;;;;6.40;2.22;;;17.80;73.10;;;;;;4956378;28;20465;-18
2023/07/03 04:30:35;;;;;;;6.32;1.92;;;17.80;73.60;;;;;;4966438;28;20026;-17
2023/07/03 04:33:01;;;;;;;7.80;2.20;;;17.80;73.40;;;;;;4966220;28;20223;-18
2023/07/03 04:35:27;;;;;;;6.57;2.03;;;17.80;73.40;;;;;;4951082;28;20274;-18
2023/07/03 04:37:52;;;;;;;6.53;1.98;;;17.80;73.40;;;;;;4980439;28;20559;-18
2023/07/03 04:40:18;;;;;;;6.32;2.10;;;17.70;73.60;;;;;;4968800;28;20033;-18
2023/07/03 04:42:45;;;;;;;8.20;2.20;;;17.70;73.50;;;;;;4942348;28;20494;-18
2023/07/03 04:45:11;;;;;;;5.18;1.80;;;17.70;73.70;;;;;;4981181;28;20030;-17
2023/07/03 04:47:39;;;;;;;7.57;2.03;;;17.70;73.70;;;;;;4968073;28;20027;-17
2023/07/03 04:50:12;;;;;;;6.10;2.13;;;17.70;73.90;;;;;;4960139;28;20140;-17
2023/07/03 04:52:38;;;;;;;6.40;2.10;;;17.70;74.00;;;;;;4985205;28;20030;-18
2023/07/03 04:55:08;;;;;;;7.17;2.43;;;17.70;73.90;;;;;;4980913;28;20069;-17
2023/07/03 04:57:42;;;;;;;7.93;2.00;;;17.70;74.40;;;;;;4960580;28;20038;-17
2023/07/03 05:00:17;;;;;;;7.18;2.60;;;17.70;74.20;;;;;;4965607;28;20066;-18
2023/07/03 05:02:48;;;;;;;5.38;1.90;;;17.70;74.70;;;;;;4949539;28;21266;-17
2023/07/03 05:05:15;;;;;;;6.10;2.03;;;17.70;75.40;;;;;;4967814;28;20510;-17
2023/07/03 05:07:42;;;;;;;7.13;2.20;;;17.70;74.30;;;;;;4952351;28;20034;-17
2023/07/03 05:10:10;;;;;;;6.20;1.98;;;17.70;74.30;;;;;;4985955;28;20022;-18
2023/07/03 05:12:36;;;;;;;6.93;1.90;;;17.70;74.40;;;;;;4931235;28;20045;-18
2023/07/03 05:15:07;;;;;;;5.43;1.85;;;17.70;74.50;;;;;;4968763;28;20031;-18
2023/07/03 05:17:34;;;;;;;5.57;2.03;;;17.70;74.50;;;;;;4971689;28;20039;-18
2023/07/03 05:20:01;;;;;;;5.30;1.73;;;17.70;74.40;;;;;;4966292;28;20037;-18
2023/07/03 05:22:27;;;;;;;6.53;1.80;;;17.70;74.40;;;;;;4957145;28;20038;-18
2023/07/03 05:24:55;;;;;;;6.90;1.88;;;17.70;74.40;;;;;;4959719;28;20031;-17
2023/07/03 05:27:20;;;;;;;7.93;1.88;;;17.70;74.40;;;;;;4959318;28;20571;-18
2023/07/03 05:29:46;;;;;;;6.17;2.03;;;17.70;74.50;;;;;;4954349;28;20038;-18
2023/07/03 05:32:12;;;;;;;6.70;1.97;;;17.70;74.60;;;;;;4970142;28;20336;-18
2023/07/03 05:34:38;;;;;;;6.20;2.00;;;17.70;74.70;;;;;;4945653;28;20184;-17
2023/07/03 05:37:05;;;;;;;6.30;1.63;;;17.70;74.70;;;;;;4969329;28;20031;-18
2023/07/03 05:39:31;;;;;;;6.78;1.95;;;17.70;74.90;;;;;;4925369;28;20051;-18
2023/07/03 05:41:57;;;;;;;6.10;1.93;;;17.80;75.20;;;;;;4967254;28;20069;-18
2023/07/03 05:44:22;;;;;;;4.47;1.70;;;17.90;75.30;;;;;;4945458;28;20046;-18
2023/07/03 05:46:49;;;;;;;6.50;1.90;;;18.00;75.50;;;;;;4966971;28;20069;-18
2023/07/03 05:49:15;;;;;;;5.07;1.80;;;18.00;75.70;;;;;;4966505;28;20056;-18
2023/07/03 05:51:40;;;;;;;7.35;1.90;;;18.20;75.80;;;;;;4938456;28;20074;-17
2023/07/03 05:54:06;;;;;;;7.00;1.70;;;18.30;75.70;;;;;;4951309;28;20050;-18
2023/07/03 05:56:32;;;;;;;6.28;1.88;;;18.40;75.50;;;;;;4964878;28;20035;-18
2023/07/03 05:58:57;;;;;;;5.87;1.73;;;18.50;75.40;;;;;;4947813;28;20080;-18
2023/07/03 06:01:23;;;;;;;5.15;1.60;;;18.60;75.40;;;;;;4967074;28;20047;-18
2023/07/03 06:03:49;;;;;;;7.00;1.80;;;18.70;75.30;;;;;;4958854;28;20035;-19
2023/07/03 06:06:16;;;;;;;5.50;2.00;;;18.80;75.30;;;;;;4944163;28;20666;-18
2023/07/03 06:08:41;;;;;;;7.70;2.30;;;18.90;75.10;;;;;;4967778;28;20441;-18
2023/07/03 06:11:07;;;;;;;6.00;1.87;;;19.00;75.10;;;;;;4944021;28;20117;-18
2023/07/03 06:13:33;;;;;;;7.10;2.08;;;19.00;75.00;;;;;;4984473;28;20557;-18
2023/07/03 06:15:58;;;;;;;6.50;2.17;;;19.10;74.90;;;;;;4957150;28;20101;-18
2023/07/03 06:18:24;;;;;;;7.07;2.10;;;19.20;74.70;;;;;;4967124;28;20023;-18
2023/07/03 06:20:50;;;;;;;5.40;2.00;;;19.20;74.30;;;;;;4955745;28;20031;-18
2023/07/03 06:23:16;;;;;;;6.70;2.05;;;19.30;74.00;;;;;;4964897;28;20026;-18
2023/07/03 06:25:42;;;;;;;6.45;2.00;;;19.30;74.00;;;;;;4943943;28;20041;-18
2023/07/03 06:28:07;;;;;;;7.37;2.17;;;19.30;74.10;;;;;;4953791;28;20555;-18
2023/07/03 06:30:33;;;;;;;5.68;1.90;;;19.40;74.30;;;;;;4955827;28;20038;-18
2023/07/03 06:32:59;;;;;;;6.37;2.00;;;19.40;74.40;;;;;;4969272;28;20103;-18
2023/07/03 06:35:25;;;;;;;6.40;1.95;;;19.50;74.40;;;;;;4963204;28;20038;-18
2023/07/03 06:37:57;;;;;;;7.10;2.13;;;19.50;74.40;;;;;;4968047;28;20033;-18
2023/07/03 06:40:23;;;;;;;6.90;2.33;;;19.50;74.60;;;;;;4958075;28;20027;-18
2023/07/03 06:42:48;;;;;;;7.50;2.30;;;19.60;74.60;;;;;;4961858;28;20077;-18
2023/07/03 06:45:14;;;;;;;7.83;2.17;;;19.60;74.70;;;;;;4971884;28;20026;-18
2023/07/03 06:47:40;;;;;;;7.60;2.20;;;19.70;74.90;;;;;;4949122;28;20907;-18
2023/07/03 06:50:06;;;;;;;5.70;1.90;;;19.70;74.90;;;;;;4969911;28;20026;-19
2023/07/03 06:52:36;;;;;;;7.30;2.33;;;19.70;74.70;;;;;;4963857;28;20034;-19
2023/07/03 06:55:05;;;;;;;6.57;2.25;;;19.80;74.90;;;;;;4971064;28;20061;-18
2023/07/03 06:57:34;;;;;;;5.88;2.30;;;19.80;74.60;;;;;;4952902;28;20153;-18
2023/07/03 06:59:59;;;;;;;6.32;2.17;;;19.90;74.60;;;;;;4969779;28;20477;-18
2023/07/03 07:02:25;;;;;;;12.60;2.40;;;19.90;74.50;;;;;;4953899;28;20038;-18
2023/07/03 07:04:55;;;;;;;7.90;2.20;;;19.90;74.60;;;;;;4968128;28;20113;-18
2023/07/03 07:07:21;;;;;;;5.07;2.07;;;19.90;74.50;;;;;;4971801;28;20042;-18
2023/07/03 07:09:46;;;;;;;7.05;2.42;;;20.00;74.30;;;;;;4970404;28;20027;-18
2023/07/03 07:12:12;;;;;;;6.63;2.42;;;20.00;74.30;;;;;;4961059;28;20072;-18
2023/07/03 07:14:39;;;;;;;7.00;2.40;;;20.00;74.30;;;;;;4968746;28;20698;-18
2023/07/03 07:17:05;;;;;;;5.93;2.10;;;20.00;74.00;;;;;;4990042;28;20046;-18
2023/07/03 07:19:30;;;;;;;8.65;2.50;;;20.00;73.80;;;;;;4953581;28;20030;-18
2023/07/03 07:21:56;;;;;;;4.90;1.97;;;20.00;73.30;;;;;;4982824;28;20043;-18
2023/07/03 07:24:24;;;;;;;7.55;2.20;;;20.00;73.00;;;;;;4964741;28;20038;-18
2023/07/03 07:26:54;;;;;;;4.93;1.98;;;19.90;72.80;;;;;;4959095;28;20046;-18
2023/07/03 07:29:21;;;;;;;3.80;1.80;;;19.90;72.90;;;;;;4958935;28;20030;-19
2023/07/03 07:31:47;;;;;;;6.97;2.00;;;19.90;72.80;;;;;;4972511;28;20488;-19
2023/07/03 07:34:12;;;;;;;5.32;2.00;;;19.90;72.70;;;;;;4946563;28;20033;-18
2023/07/03 07:36:39;;;;;;;8.20;1.80;;;19.80;72.40;;;;;;4967188;28;20509;-18
2023/07/03 07:39:06;;;;;;;4.78;1.92;;;19.80;72.50;;;;;;4974108;28;20716;-18
2023/07/03 07:41:32;;;;;;;4.72;1.90;;;19.80;72.60;;;;;;4966650;28;20041;-18
2023/07/03 07:44:00;;;;;;;4.63;1.90;;;19.70;72.70;;;;;;4957415;28;20046;-18
2023/07/03 07:46:29;;;;;;;3.45;1.73;;;19.80;73.00;;;;;;4967459;28;20034;-19
2023/07/03 07:48:59;;;;;;;8.00;1.90;;;19.80;72.90;;;;;;4969532;28;20025;-18
2023/07/03 07:51:25;;;;;;;5.30;1.80;;;19.90;73.10;;;;;;4947522;28;20038;-19
2023/07/03 07:53:52;;;;;;;5.47;2.00;;;20.00;73.60;;;;;;4960975;28;20031;-18
2023/07/03 07:56:19;;;;;;;6.15;2.00;;;20.10;73.60;;;;;;4966120;28;20129;-19
2023/07/03 07:58:45;;;;;;;3.85;1.55;;;20.30;74.20;;;;;;4970708;28;20240;-19
2023/07/03 08:01:14;;;;;;;6.03;2.10;;;20.50;74.20;;;;;;4971817;28;20058;-19
2023/07/03 08:03:41;;;;;;;4.80;2.10;;;20.70;74.00;;;;;;4964629;28;20109;-18
2023/07/03 08:06:08;;;;;;;6.10;2.20;;;20.90;74.40;;;;;;4946099;28;20255;-18
2023/07/03 08:08:34;;;;;;;6.07;2.33;;;21.20;74.20;;;;;;4960909;28;20046;-18
2023/07/03 08:11:02;;;;;;;3.80;1.80;;;21.40;74.00;;;;;;4961137;28;20041;-18
2023/07/03 08:13:33;;;;;;;4.85;1.88;;;21.70;74.50;;;;;;4957390;28;20030;-19
2023/07/03 08:15:59;;;;;;;7.72;2.30;;;22.00;75.20;;;;;;4971866;28;20022;-19
2023/07/03 08:18:25;;;;;;;6.28;1.90;;;22.40;77.30;;;;;;4966255;28;20023;-19
2023/07/03 08:20:52;;;;;;;5.05;1.98;;;22.80;76.20;;;;;;4943236;28;20061;-18
2023/07/03 08:23:17;;;;;;;4.07;1.57;;;23.20;74.60;;;;;;4968342;28;20109;-19
2023/07/03 08:25:44;;;;;;;5.28;1.80;;;23.40;72.30;;;;;;4953031;28;20100;-18
2023/07/03 08:28:10;;;;;;;4.82;1.88;;;23.50;70.40;;;;;;4960192;28;20222;-18
2023/07/03 08:30:36;;;;;;;6.97;1.90;;;23.50;69.20;;;;;;4958264;28;20125;-18
2023/07/03 08:33:02;;;;;;;5.53;1.97;;;23.30;68.30;;;;;;4958795;28;20064;-18
2023/07/03 08:35:28;;;;;;;5.57;1.80;;;23.20;67.70;;;;;;4968661;28;20458;-18
2023/07/03 08:37:54;;;;;;;7.35;2.17;;;23.00;67.40;;;;;;4942751;28;20031;-18
2023/07/03 08:40:22;;;;;;;5.88;2.08;;;22.80;67.10;;;;;;4974403;28;20208;-18
2023/07/03 08:42:53;;;;;;;5.27;2.00;;;22.60;67.10;;;;;;4961746;28;20027;-18
2023/07/03 08:45:21;;;;;;;4.50;1.58;;;22.40;67.20;;;;;;4953160;28;20683;-18
2023/07/03 08:47:49;;;;;;;8.63;2.00;;;22.30;67.50;;;;;;4957846;28;20110;-18
2023/07/03 08:50:18;;;;;;;5.00;1.98;;;22.10;67.80;;;;;;4965471;28;20105;-17
2023/07/03 08:52:56;;;;;;;4.60;1.73;;;22.00;68.00;;;;;;4946994;28;20022;-18
2023/07/03 08:55:29;;;;;;;4.63;1.80;;;21.90;68.20;;;;;;4960197;28;20145;-17
2023/07/03 08:57:55;;;;;;;5.32;1.95;;;21.80;68.60;;;;;;4966215;28;20035;-18
2023/07/03 09:00:21;;;;;;;5.43;1.77;;;21.80;69.00;;;;;;4963891;28;20061;-18
2023/07/03 09:03:06;;;;;;;4.90;1.90;;;21.70;69.60;;;;;;4969189;28;20096;-18
2023/07/03 09:06:05;;;;;;;3.70;1.73;;;21.80;71.30;;;;;;4983314;28;20026;-18
2023/07/03 09:08:56;;;;;;;4.37;1.80;;;22.20;73.00;;;;;;4948610;28;20052;-18
2023/07/03 09:11:25;;;;;;;5.20;2.03;;;22.70;71.10;;;;;;4961960;28;20330;-18
2023/07/03 09:13:54;;;;;;;5.80;1.90;;;22.90;70.10;;;;;;4967770;28;20030;-18
2023/07/03 09:16:22;;;;;;;5.22;2.00;;;23.10;69.20;;;;;;4945273;28;20027;-18
2023/07/03 09:18:58;;;;;;;6.25;1.85;;;23.30;68.70;;;;;;4959946;28;20030;-18
2023/07/03 09:21:26;;;;;;;5.27;1.80;;;23.50;67.20;;;;;;4981525;28;20225;-18
2023/07/03 09:24:21;;;;;;;5.75;1.80;;;23.60;67.80;;;;;;4944558;28;20030;-18
2023/07/03 09:27:05;;;;;;;3.30;1.70;;;23.80;66.20;;;;;;4967751;28;20261;-18
2023/07/03 09:29:34;;;;;;;5.50;1.80;;;23.90;65.50;;;;;;4967105;28;20757;-18
2023/07/03 09:32:00;;;;;;;3.03;1.58;;;23.90;65.40;;;;;;4947124;28;20054;-18
2023/07/03 09:34:25;;;;;;;3.67;1.50;;;23.90;65.00;;;;;;4951978;28;20189;-18
2023/07/03 09:36:59;;;;;;;3.63;1.37;;;23.80;64.60;;;;;;4964175;28;20031;-19
2023/07/03 09:39:25;;;;;;;3.17;1.20;;;23.80;64.30;;;;;;4941346;28;20227;-18
2023/07/03 09:41:53;;;;;;;4.72;1.48;;;24.00;65.70;;;;;;4966831;28;20027;-19
2023/07/03 09:44:22;;;;;;;5.25;1.40;;;24.00;65.50;;;;;;4974644;28;20022;-18
2023/07/03 09:46:48;;;;;;;3.97;1.52;;;24.10;63.70;;;;;;4973981;28;20058;-18
2023/07/03 09:49:28;;;;;;;3.80;1.47;;;24.20;63.20;;;;;;4957473;28;20614;-18
2023/07/03 09:51:57;;;;;;;5.45;1.70;;;24.00;62.20;;;;;;4980290;28;20018;-19
2023/07/03 09:54:27;;;;;;;3.92;1.42;;;24.00;61.90;;;;;;4941254;28;20030;-18
2023/07/03 09:56:53;;;;;;;6.15;1.70;;;23.90;62.10;;;;;;4969835;28;20022;-19
2023/07/03 09:59:20;;;;;;;4.18;1.42;;;23.90;63.70;;;;;;4958428;28;20042;-18
2023/07/03 10:01:47;;;;;;;2.67;1.17;;;24.00;64.10;;;;;;4973894;28;20050;-19
2023/07/03 10:04:17;;;;;;;3.47;1.40;;;24.10;63.90;;;;;;4964576;28;20065;-18
2023/07/03 10:07:00;;;;;;;3.75;1.40;;;24.20;62.30;;;;;;4964359;28;20034;-18
2023/07/03 10:09:33;;;;;;;3.22;1.30;;;24.20;61.40;;;;;;4943736;28;20522;-18
2023/07/03 10:12:03;;;;;;;2.20;1.20;;;24.20;61.10;;;;;;4972708;28;20713;-19
2023/07/03 10:14:41;;;;;;;3.57;1.30;;;24.30;63.00;;;;;;4968947;28;20493;-18
2023/07/03 10:17:12;;;;;;;4.20;1.13;;;24.60;63.50;;;;;;4945891;28;20189;-18
2023/07/03 10:19:45;;;;;;;4.22;1.50;;;25.00;65.10;;;;;;4951832;28;20026;-18
2023/07/03 10:22:12;;;;;;;4.35;1.40;;;25.40;63.20;;;;;;4960848;28;20109;-19
2023/07/03 10:24:39;;;;;;;3.55;1.33;;;25.90;65.00;;;;;;4969988;28;20030;-18
2023/07/03 10:27:06;;;;;;;4.20;1.53;;;26.30;63.60;;;;;;4943323;28;20047;-19
2023/07/03 10:29:41;;;;;;;4.70;1.52;;;26.60;63.10;;;;;;4957634;28;20446;-18
2023/07/03 10:32:15;;;;;;;4.35;1.52;;;27.00;61.10;;;;;;4960546;28;20034;-18
2023/07/03 10:34:55;;;;;;;4.43;1.50;;;27.30;61.30;;;;;;4970890;28;20035;-19
2023/07/03 10:37:23;;;;;;;3.00;1.40;;;27.60;59.30;;;;;;4965135;28;20564;-18
2023/07/03 10:40:09;;;;;;;3.57;1.23;;;27.70;58.70;;;;;;4986934;28;20041;-19
2023/07/03 10:42:43;;;;;;;3.10;1.33;;;27.90;55.60;;;;;;4944196;28;20129;-19
2023/07/03 10:45:12;;;;;;;4.78;1.30;;;27.80;55.50;;;;;;4962631;28;20028;-18
2023/07/03 10:47:47;;;;;;;2.60;1.17;;;27.70;55.00;;;;;;4960432;28;20061;-18
2023/07/03 10:50:14;;;;;;;3.03;1.20;;;27.50;53.90;;;;;;4951661;28;20316;-19
2023/07/03 10:53:27;;;;;;;3.47;1.23;;;27.30;54.40;;;;;;4962422;28;20053;-18
2023/07/03 10:55:55;;;;;;;3.42;1.20;;;27.10;53.10;;;;;;4967014;28;20070;-19
2023/07/03 10:59:13;;;;;;;2.72;1.20;;;26.90;54.60;;;;;;4947297;28;20239;-18
2023/07/03 11:01:46;;;;;;;3.25;1.17;;;26.60;53.20;;;;;;4967331;28;20097;-18
2023/07/03 11:04:21;;;;;;;3.60;1.23;;;26.40;53.40;;;;;;4945855;28;20034;-18
2023/07/03 11:07:10;;;;;;;3.17;1.30;;;26.20;52.60;;;;;;4975988;28;20290;-18
2023/07/03 11:09:47;;;;;;;3.08;1.30;;;25.90;54.00;;;;;;4962207;28;20039;-18
2023/07/03 11:12:51;;;;;;;3.53;1.30;;;25.70;53.60;;;;;;4972206;28;20041;-19
2023/07/03 11:15:37;;;;;;;4.47;1.20;;;25.50;53.40;;;;;;4974397;28;20042;-19
2023/07/03 11:18:19;;;;;;;3.95;1.25;;;25.30;54.10;;;;;;4973289;28;20518;-18
2023/07/03 11:21:09;;;;;;;4.80;1.30;;;25.20;53.50;;;;;;4950257;28;20045;-18
2023/07/03 11:24:24;;;;;;;4.45;1.20;;;25.10;54.10;;;;;;4958629;28;20041;-19
2023/07/03 11:27:25;;;;;;;3.72;1.38;;;25.10;54.70;;;;;;4970159;28;20312;-18
2023/07/03 11:29:53;;;;;;;3.63;1.25;;;25.20;55.50;;;;;;4947600;28;20038;-18
2023/07/03 11:32:20;;;;;;;4.07;1.40;;;25.40;57.20;;;;;;4965280;28;20032;-19
2023/07/03 11:34:47;;;;;;;4.37;1.40;;;25.60;56.40;;;;;;4963779;28;20221;-18
2023/07/03 11:37:35;;;;;;;3.22;1.40;;;25.80;56.10;;;;;;4956581;28;20035;-19
2023/07/03 11:40:34;;;;;;;3.58;1.40;;;25.90;54.70;;;;;;4977073;28;20081;-18
2023/07/03 11:43:15;;;;;;;3.95;1.40;;;26.10;55.30;;;;;;4970098;28;20034;-18
2023/07/03 11:45:50;;;;;;;3.90;1.40;;;26.30;56.20;;;;;;4942331;28;20276;-19
2023/07/03 11:48:39;;;;;;;2.57;1.30;;;26.70;54.90;;;;;;4987356;28;20548;-19
2023/07/03 11:51:11;;;;;;;4.45;1.58;;;26.90;53.90;;;;;;4972728;28;20440;-18
2023/07/03 11:53:38;;;;;;;2.90;1.10;;;27.10;53.60;;;;;;4942095;28;20277;-18
2023/07/03 11:56:06;;;;;;;3.92;1.17;;;27.20;54.30;;;;;;4963422;28;20062;-19
2023/07/03 11:58:33;;;;;;;3.30;1.30;;;27.40;55.60;;;;;;4966667;28;20751;-18
2023/07/03 12:01:21;;;;;;;3.70;1.30;;;27.70;55.70;;;;;;4941391;28;20444;-19
2023/07/03 12:03:56;;;;;;;3.03;1.10;;;27.90;53.10;;;;;;4967711;28;20061;-19
2023/07/03 12:06:51;;;;;;;3.65;1.25;;;28.00;53.00;;;;;;4947976;28;20429;-19
2023/07/03 12:09:32;;;;;;;3.63;1.30;;;28.00;51.90;;;;;;4970384;28;20081;-19
2023/07/03 12:12:02;;;;;;;3.05;1.30;;;27.90;50.00;;;;;;4970368;28;20133;-18
2023/07/03 12:14:44;;;;;;;4.27;1.10;;;27.70;51.10;;;;;;4965848;28;20498;-19
2023/07/03 12:17:19;;;;;;;3.63;1.13;;;27.50;50.60;;;;;;4946667;28;20045;-19
2023/07/03 12:19:46;;;;;;;2.67;1.20;;;27.40;50.70;;;;;;4965389;28;20632;-18
2023/07/03 12:22:18;;;;;;;3.08;1.15;;;27.30;51.00;;;;;;4947083;28;20049;-19
2023/07/03 12:24:45;;;;;;;5.32;1.42;;;27.20;51.10;;;;;;4975911;28;20673;-18
2023/07/03 12:27:11;;;;;;;3.57;1.40;;;27.20;51.30;;;;;;4962471;28;20555;-19
2023/07/03 12:29:47;;;;;;;3.88;1.30;;;27.10;50.90;;;;;;4980751;28;20038;-19
2023/07/03 12:32:27;;;;;;;2.28;1.10;;;27.00;50.30;;;;;;4944240;28;20527;-19
2023/07/03 12:34:53;;;;;;;3.33;1.30;;;26.90;51.00;;;;;;4966745;28;20015;-19
2023/07/03 12:37:21;;;;;;;3.13;1.05;;;27.00;52.10;;;;;;4952007;28;20644;-19
2023/07/03 12:39:48;;;;;;;4.37;1.30;;;27.00;51.80;;;;;;4962403;28;20359;-18
2023/07/03 12:42:20;;;;;;;4.07;1.20;;;27.10;51.30;;;;;;4974592;28;20060;-19
2023/07/03 12:44:46;;;;;;;4.10;1.10;;;27.10;50.30;;;;;;4967381;28;20042;-19
2023/07/03 12:47:15;;;;;;;3.92;1.13;;;27.00;50.20;;;;;;4948765;28;20033;-18
2023/07/03 12:49:47;;;;;;;4.38;1.13;;;26.90;49.80;;;;;;4947907;28;20438;-18
2023/07/03 12:52:16;;;;;;;2.73;1.03;;;26.70;49.10;;;;;;4964850;28;20425;-19
2023/07/03 12:54:42;;;;;;;2.97;1.10;;;26.50;49.30;;;;;;4920804;28;20132;-19
2023/07/03 12:57:09;;;;;;;3.97;1.17;;;26.30;50.00;;;;;;4956215;28;20106;-18
2023/07/03 12:59:35;;;;;;;2.93;1.20;;;26.30;50.60;;;;;;4954009;28;20254;-19
2023/07/03 13:02:02;;;;;;;3.25;1.10;;;26.30;51.30;;;;;;4969240;28;21827;-19